sensor_id;sensor_type;location;lat;lon;timestamp;P1;durP1;ratioP1;P2;durP2;ratioP2
1276;SDS011;631;51.024;13.826;2022-07-01T00:00:34;20.17;;;17.93;;
1276;SDS011;631;51.024;13.826;2022-07-01T00:02:59;19.53;;;17.53;;
1276;SDS011;631;51.024;13.826;2022-07-01T00:05:25;20.00;;;18.00;;
1276;SDS011;631;51.024;13.826;2022-07-01T00:07:50;22.83;;;18.30;;
1276;SDS011;631;51.024;13.826;2022-07-01T00:10:16;28.23;;;18.63;;
1276;SDS011;631;51.024;13.826;2022-07-01T00:12:42;20.50;;;18.50;;
1276;SDS011;631;51.024;13.826;2022-07-01T00:15:08;20.53;;;18.33;;
1276;SDS011;631;51.024;13.826;2022-07-01T00:17:34;19.30;;;17.40;;
1276;SDS011;631;51.024;13.826;2022-07-01T00:20:00;20.60;;;18.60;;
1276;SDS011;631;51.024;13.826;2022-07-01T00:22:27;21.13;;;19.10;;
1276;SDS011;631;51.024;13.826;2022-07-01T00:24:53;20.87;;;18.77;;
1276;SDS011;631;51.024;13.826;2022-07-01T00:27:20;20.13;;;18.13;;
1276;SDS011;631;51.024;13.826;2022-07-01T00:29:45;20.80;;;18.60;;
1276;SDS011;631;51.024;13.826;2022-07-01T00:32:11;21.43;;;16.97;;
1276;SDS011;631;51.024;13.826;2022-07-01T00:34:37;21.70;;;17.60;;
1276;SDS011;631;51.024;13.826;2022-07-01T00:37:02;20.60;;;18.60;;
1276;SDS011;631;51.024;13.826;2022-07-01T00:39:28;20.00;;;18.10;;
1276;SDS011;631;51.024;13.826;2022-07-01T00:41:59;20.97;;;18.73;;
1276;SDS011;631;51.024;13.826;2022-07-01T00:44:26;20.17;;;17.83;;
1276;SDS011;631;51.024;13.826;2022-07-01T00:46:52;21.70;;;19.50;;
1276;SDS011;631;51.024;13.826;2022-07-01T00:49:18;20.97;;;18.87;;
1276;SDS011;631;51.024;13.826;2022-07-01T00:51:44;21.47;;;19.47;;
1276;SDS011;631;51.024;13.826;2022-07-01T00:54:10;20.90;;;18.87;;
1276;SDS011;631;51.024;13.826;2022-07-01T00:56:37;20.53;;;18.47;;
1276;SDS011;631;51.024;13.826;2022-07-01T00:59:03;21.33;;;19.33;;
1276;SDS011;631;51.024;13.826;2022-07-01T01:01:28;20.73;;;18.60;;
1276;SDS011;631;51.024;13.826;2022-07-01T01:03:54;21.00;;;18.83;;
1276;SDS011;631;51.024;13.826;2022-07-01T01:06:20;20.07;;;18.07;;
1276;SDS011;631;51.024;13.826;2022-07-01T01:08:46;20.27;;;18.37;;
1276;SDS011;631;51.024;13.826;2022-07-01T01:11:14;21.00;;;18.40;;
1276;SDS011;631;51.024;13.826;2022-07-01T01:13:41;20.97;;;18.87;;
1276;SDS011;631;51.024;13.826;2022-07-01T01:16:06;20.10;;;18.20;;
1276;SDS011;631;51.024;13.826;2022-07-01T01:18:32;20.63;;;18.43;;
1276;SDS011;631;51.024;13.826;2022-07-01T01:20:58;19.90;;;17.90;;
1276;SDS011;631;51.024;13.826;2022-07-01T01:23:24;19.90;;;18.00;;
1276;SDS011;631;51.024;13.826;2022-07-01T01:25:50;20.20;;;18.30;;
1276;SDS011;631;51.024;13.826;2022-07-01T01:28:15;19.67;;;17.57;;
1276;SDS011;631;51.024;13.826;2022-07-01T01:30:41;21.20;;;18.90;;
1276;SDS011;631;51.024;13.826;2022-07-01T01:33:07;21.33;;;19.23;;
1276;SDS011;631;51.024;13.826;2022-07-01T01:35:36;20.27;;;18.17;;
1276;SDS011;631;51.024;13.826;2022-07-01T01:38:02;23.40;;;19.60;;
1276;SDS011;631;51.024;13.826;2022-07-01T01:40:28;20.53;;;18.63;;
1276;SDS011;631;51.024;13.826;2022-07-01T01:42:54;20.80;;;18.10;;
1276;SDS011;631;51.024;13.826;2022-07-01T01:45:19;21.70;;;18.83;;
1276;SDS011;631;51.024;13.826;2022-07-01T01:47:45;21.90;;;19.10;;
1276;SDS011;631;51.024;13.826;2022-07-01T01:50:11;20.60;;;18.50;;
1276;SDS011;631;51.024;13.826;2022-07-01T01:52:39;20.13;;;18.17;;
1276;SDS011;631;51.024;13.826;2022-07-01T01:55:08;21.70;;;19.30;;
1276;SDS011;631;51.024;13.826;2022-07-01T01:57:34;21.10;;;18.90;;
1276;SDS011;631;51.024;13.826;2022-07-01T01:59:59;20.80;;;18.70;;
1276;SDS011;631;51.024;13.826;2022-07-01T02:02:25;20.73;;;18.73;;
1276;SDS011;631;51.024;13.826;2022-07-01T02:04:51;19.43;;;17.53;;
1276;SDS011;631;51.024;13.826;2022-07-01T02:07:17;19.40;;;17.30;;
1276;SDS011;631;51.024;13.826;2022-07-01T02:09:43;20.30;;;18.37;;
1276;SDS011;631;51.024;13.826;2022-07-01T02:12:08;24.93;;;18.43;;
1276;SDS011;631;51.024;13.826;2022-07-01T02:14:34;20.40;;;18.20;;
1276;SDS011;631;51.024;13.826;2022-07-01T02:17:00;20.60;;;18.63;;
1276;SDS011;631;51.024;13.826;2022-07-01T02:19:25;21.20;;;18.90;;
1276;SDS011;631;51.024;13.826;2022-07-01T02:21:51;21.23;;;19.03;;
1276;SDS011;631;51.024;13.826;2022-07-01T02:24:17;21.63;;;19.40;;
1276;SDS011;631;51.024;13.826;2022-07-01T02:26:43;21.07;;;19.03;;
1276;SDS011;631;51.024;13.826;2022-07-01T02:29:09;21.60;;;19.40;;
1276;SDS011;631;51.024;13.826;2022-07-01T02:31:35;20.27;;;18.37;;
1276;SDS011;631;51.024;13.826;2022-07-01T02:34:00;20.20;;;18.03;;
1276;SDS011;631;51.024;13.826;2022-07-01T02:36:26;22.43;;;20.07;;
1276;SDS011;631;51.024;13.826;2022-07-01T02:38:52;22.70;;;18.57;;
1276;SDS011;631;51.024;13.826;2022-07-01T02:41:17;21.07;;;18.83;;
1276;SDS011;631;51.024;13.826;2022-07-01T02:43:43;19.90;;;17.90;;
1276;SDS011;631;51.024;13.826;2022-07-01T02:46:09;20.77;;;18.57;;
1276;SDS011;631;51.024;13.826;2022-07-01T02:48:34;19.77;;;17.67;;
1276;SDS011;631;51.024;13.826;2022-07-01T02:51:00;20.80;;;18.70;;
1276;SDS011;631;51.024;13.826;2022-07-01T02:53:26;20.93;;;18.73;;
1276;SDS011;631;51.024;13.826;2022-07-01T02:55:51;20.47;;;17.87;;
1276;SDS011;631;51.024;13.826;2022-07-01T02:58:17;21.43;;;18.40;;
1276;SDS011;631;51.024;13.826;2022-07-01T03:00:42;21.87;;;19.57;;
1276;SDS011;631;51.024;13.826;2022-07-01T03:03:08;20.30;;;17.97;;
1276;SDS011;631;51.024;13.826;2022-07-01T03:05:34;19.87;;;17.67;;
1276;SDS011;631;51.024;13.826;2022-07-01T03:07:59;20.80;;;18.60;;
1276;SDS011;631;51.024;13.826;2022-07-01T03:10:25;21.13;;;18.30;;
1276;SDS011;631;51.024;13.826;2022-07-01T03:12:51;22.53;;;19.10;;
1276;SDS011;631;51.024;13.826;2022-07-01T03:15:17;23.73;;;18.97;;
1276;SDS011;631;51.024;13.826;2022-07-01T03:17:44;20.70;;;18.63;;
1276;SDS011;631;51.024;13.826;2022-07-01T03:20:14;21.77;;;19.57;;
1276;SDS011;631;51.024;13.826;2022-07-01T03:22:41;19.90;;;18.00;;
1276;SDS011;631;51.024;13.826;2022-07-01T03:25:08;20.27;;;18.37;;
1276;SDS011;631;51.024;13.826;2022-07-01T03:27:34;20.80;;;18.30;;
1276;SDS011;631;51.024;13.826;2022-07-01T03:30:01;20.93;;;18.70;;
1276;SDS011;631;51.024;13.826;2022-07-01T03:32:28;21.80;;;18.53;;
1276;SDS011;631;51.024;13.826;2022-07-01T03:34:53;20.07;;;18.07;;
1276;SDS011;631;51.024;13.826;2022-07-01T03:37:19;20.37;;;18.27;;
1276;SDS011;631;51.024;13.826;2022-07-01T03:39:46;21.63;;;19.43;;
1276;SDS011;631;51.024;13.826;2022-07-01T03:42:12;23.93;;;18.90;;
1276;SDS011;631;51.024;13.826;2022-07-01T03:44:38;20.70;;;18.50;;
1276;SDS011;631;51.024;13.826;2022-07-01T03:47:04;19.90;;;17.80;;
1276;SDS011;631;51.024;13.826;2022-07-01T03:49:31;21.40;;;19.23;;
1276;SDS011;631;51.024;13.826;2022-07-01T03:51:57;22.60;;;19.13;;
1276;SDS011;631;51.024;13.826;2022-07-01T03:54:23;21.40;;;19.20;;
1276;SDS011;631;51.024;13.826;2022-07-01T03:56:54;22.57;;;20.30;;
1276;SDS011;631;51.024;13.826;2022-07-01T03:59:39;21.63;;;19.60;;
1276;SDS011;631;51.024;13.826;2022-07-01T04:02:05;20.37;;;18.30;;
1276;SDS011;631;51.024;13.826;2022-07-01T04:04:31;21.43;;;19.20;;
1276;SDS011;631;51.024;13.826;2022-07-01T04:06:59;21.00;;;18.10;;
1276;SDS011;631;51.024;13.826;2022-07-01T04:09:25;20.17;;;17.83;;
1276;SDS011;631;51.024;13.826;2022-07-01T04:11:52;22.47;;;18.60;;
1276;SDS011;631;51.024;13.826;2022-07-01T04:14:18;19.73;;;17.60;;
1276;SDS011;631;51.024;13.826;2022-07-01T04:16:44;19.13;;;17.23;;
1276;SDS011;631;51.024;13.826;2022-07-01T04:19:11;19.17;;;17.23;;
1276;SDS011;631;51.024;13.826;2022-07-01T04:21:38;18.87;;;17.03;;
1276;SDS011;631;51.024;13.826;2022-07-01T04:24:22;18.20;;;16.47;;
1276;SDS011;631;51.024;13.826;2022-07-01T04:26:49;17.93;;;16.13;;
1276;SDS011;631;51.024;13.826;2022-07-01T04:29:15;16.70;;;15.10;;
1276;SDS011;631;51.024;13.826;2022-07-01T04:31:40;18.07;;;16.27;;
1276;SDS011;631;51.024;13.826;2022-07-01T04:34:07;17.13;;;15.43;;
1276;SDS011;631;51.024;13.826;2022-07-01T04:36:33;18.53;;;15.73;;
1276;SDS011;631;51.024;13.826;2022-07-01T04:39:00;16.10;;;14.60;;
1276;SDS011;631;51.024;13.826;2022-07-01T04:41:26;16.03;;;14.43;;
1276;SDS011;631;51.024;13.826;2022-07-01T04:44:11;15.30;;;13.90;;
1276;SDS011;631;51.024;13.826;2022-07-01T04:46:36;15.00;;;13.60;;
1276;SDS011;631;51.024;13.826;2022-07-01T04:49:02;15.40;;;13.90;;
1276;SDS011;631;51.024;13.826;2022-07-01T04:51:27;16.20;;;14.60;;
1276;SDS011;631;51.024;13.826;2022-07-01T04:53:53;15.33;;;13.90;;
1276;SDS011;631;51.024;13.826;2022-07-01T04:56:19;15.83;;;14.10;;
1276;SDS011;631;51.024;13.826;2022-07-01T04:58:45;16.13;;;14.63;;
1276;SDS011;631;51.024;13.826;2022-07-01T05:01:10;15.40;;;13.90;;
1276;SDS011;631;51.024;13.826;2022-07-01T05:03:36;15.87;;;14.40;;
1276;SDS011;631;51.024;13.826;2022-07-01T05:06:02;16.40;;;14.80;;
1276;SDS011;631;51.024;13.826;2022-07-01T05:08:28;15.93;;;14.40;;
1276;SDS011;631;51.024;13.826;2022-07-01T05:10:53;15.17;;;13.80;;
1276;SDS011;631;51.024;13.826;2022-07-01T05:13:19;16.67;;;14.97;;
1276;SDS011;631;51.024;13.826;2022-07-01T05:15:45;15.73;;;14.33;;
1276;SDS011;631;51.024;13.826;2022-07-01T05:18:10;15.87;;;14.30;;
1276;SDS011;631;51.024;13.826;2022-07-01T05:20:55;15.83;;;14.43;;
1276;SDS011;631;51.024;13.826;2022-07-01T05:23:39;15.80;;;14.50;;
1276;SDS011;631;51.024;13.826;2022-07-01T05:26:04;15.37;;;13.77;;
1276;SDS011;631;51.024;13.826;2022-07-01T05:28:30;15.80;;;14.40;;
1276;SDS011;631;51.024;13.826;2022-07-01T05:30:56;15.40;;;13.90;;
1276;SDS011;631;51.024;13.826;2022-07-01T05:33:22;14.60;;;13.10;;
1276;SDS011;631;51.024;13.826;2022-07-01T05:35:51;14.30;;;13.03;;
1276;SDS011;631;51.024;13.826;2022-07-01T05:38:19;14.73;;;12.80;;
1276;SDS011;631;51.024;13.826;2022-07-01T05:40:45;14.90;;;12.73;;
1276;SDS011;631;51.024;13.826;2022-07-01T05:43:11;13.83;;;12.37;;
1276;SDS011;631;51.024;13.826;2022-07-01T05:45:36;13.03;;;11.93;;
1276;SDS011;631;51.024;13.826;2022-07-01T05:48:02;12.47;;;11.23;;
1276;SDS011;631;51.024;13.826;2022-07-01T05:50:28;15.17;;;12.57;;
1276;SDS011;631;51.024;13.826;2022-07-01T05:52:54;13.03;;;11.93;;
1276;SDS011;631;51.024;13.826;2022-07-01T05:55:19;13.43;;;12.33;;
1276;SDS011;631;51.024;13.826;2022-07-01T05:57:45;14.53;;;13.30;;
1276;SDS011;631;51.024;13.826;2022-07-01T06:00:11;14.73;;;13.33;;
1276;SDS011;631;51.024;13.826;2022-07-01T06:02:37;14.67;;;12.70;;
1276;SDS011;631;51.024;13.826;2022-07-01T06:05:02;13.50;;;12.50;;
1276;SDS011;631;51.024;13.826;2022-07-01T06:07:29;13.97;;;12.83;;
1276;SDS011;631;51.024;13.826;2022-07-01T06:09:55;14.57;;;13.20;;
1276;SDS011;631;51.024;13.826;2022-07-01T06:12:21;15.70;;;14.40;;
1276;SDS011;631;51.024;13.826;2022-07-01T06:14:47;15.83;;;14.47;;
1276;SDS011;631;51.024;13.826;2022-07-01T06:17:13;14.40;;;13.23;;
1276;SDS011;631;51.024;13.826;2022-07-01T06:19:38;17.30;;;15.90;;
1276;SDS011;631;51.024;13.826;2022-07-01T06:22:05;16.23;;;14.87;;
1276;SDS011;631;51.024;13.826;2022-07-01T06:24:31;17.27;;;15.70;;
1276;SDS011;631;51.024;13.826;2022-07-01T06:26:56;18.47;;;16.87;;
1276;SDS011;631;51.024;13.826;2022-07-01T06:29:22;18.40;;;16.70;;
1276;SDS011;631;51.024;13.826;2022-07-01T06:31:48;17.80;;;16.20;;
1276;SDS011;631;51.024;13.826;2022-07-01T06:34:14;17.50;;;16.03;;
1276;SDS011;631;51.024;13.826;2022-07-01T06:36:40;17.97;;;16.47;;
1276;SDS011;631;51.024;13.826;2022-07-01T06:39:05;16.63;;;15.23;;
1276;SDS011;631;51.024;13.826;2022-07-01T06:41:31;15.83;;;14.50;;
1276;SDS011;631;51.024;13.826;2022-07-01T06:43:57;16.97;;;15.50;;
1276;SDS011;631;51.024;13.826;2022-07-01T06:46:24;15.53;;;14.20;;
1276;SDS011;631;51.024;13.826;2022-07-01T06:48:51;15.23;;;13.93;;
1276;SDS011;631;51.024;13.826;2022-07-01T06:51:17;15.60;;;14.40;;
1276;SDS011;631;51.024;13.826;2022-07-01T06:53:43;16.37;;;15.07;;
1276;SDS011;631;51.024;13.826;2022-07-01T06:56:11;16.77;;;15.47;;
1276;SDS011;631;51.024;13.826;2022-07-01T06:58:37;16.73;;;15.47;;
1276;SDS011;631;51.024;13.826;2022-07-01T07:01:04;17.80;;;16.10;;
1276;SDS011;631;51.024;13.826;2022-07-01T07:03:30;18.10;;;16.60;;
1276;SDS011;631;51.024;13.826;2022-07-01T07:05:57;18.50;;;16.90;;
1276;SDS011;631;51.024;13.826;2022-07-01T07:08:25;18.17;;;16.77;;
1276;SDS011;631;51.024;13.826;2022-07-01T07:10:51;17.50;;;15.90;;
1276;SDS011;631;51.024;13.826;2022-07-01T07:13:17;17.83;;;16.50;;
1276;SDS011;631;51.024;13.826;2022-07-01T07:15:43;20.47;;;18.80;;
1276;SDS011;631;51.024;13.826;2022-07-01T07:18:09;19.93;;;18.20;;
1276;SDS011;631;51.024;13.826;2022-07-01T07:20:34;20.20;;;18.30;;
1276;SDS011;631;51.024;13.826;2022-07-01T07:23:00;21.60;;;19.70;;
1276;SDS011;631;51.024;13.826;2022-07-01T07:25:26;23.23;;;20.90;;
1276;SDS011;631;51.024;13.826;2022-07-01T07:27:52;22.43;;;20.57;;
1276;SDS011;631;51.024;13.826;2022-07-01T07:30:18;23.10;;;20.80;;
1276;SDS011;631;51.024;13.826;2022-07-01T07:32:44;21.20;;;19.40;;
1276;SDS011;631;51.024;13.826;2022-07-01T07:35:09;20.07;;;18.37;;
1276;SDS011;631;51.024;13.826;2022-07-01T07:37:35;22.47;;;20.30;;
1276;SDS011;631;51.024;13.826;2022-07-01T07:40:02;21.17;;;19.17;;
1276;SDS011;631;51.024;13.826;2022-07-01T07:42:28;20.70;;;18.80;;
1276;SDS011;631;51.024;13.826;2022-07-01T07:44:54;19.63;;;18.03;;
1276;SDS011;631;51.024;13.826;2022-07-01T07:47:20;21.43;;;19.43;;
1276;SDS011;631;51.024;13.826;2022-07-01T07:49:46;20.90;;;18.90;;
1276;SDS011;631;51.024;13.826;2022-07-01T07:52:11;22.03;;;20.20;;
1276;SDS011;631;51.024;13.826;2022-07-01T07:54:37;21.73;;;19.93;;
1276;SDS011;631;51.024;13.826;2022-07-01T07:57:04;21.13;;;19.03;;
1276;SDS011;631;51.024;13.826;2022-07-01T07:59:30;22.87;;;20.87;;
1276;SDS011;631;51.024;13.826;2022-07-01T08:01:56;21.87;;;19.90;;
1276;SDS011;631;51.024;13.826;2022-07-01T08:04:21;21.50;;;19.60;;
1276;SDS011;631;51.024;13.826;2022-07-01T08:06:47;21.57;;;19.47;;
1276;SDS011;631;51.024;13.826;2022-07-01T08:09:13;21.57;;;19.57;;
1276;SDS011;631;51.024;13.826;2022-07-01T08:11:38;20.37;;;18.47;;
1276;SDS011;631;51.024;13.826;2022-07-01T08:14:04;19.87;;;17.97;;
1276;SDS011;631;51.024;13.826;2022-07-01T08:16:30;20.40;;;18.50;;
1276;SDS011;631;51.024;13.826;2022-07-01T08:18:56;20.23;;;18.23;;
1276;SDS011;631;51.024;13.826;2022-07-01T08:21:21;19.40;;;17.80;;
1276;SDS011;631;51.024;13.826;2022-07-01T08:23:47;18.10;;;16.47;;
1276;SDS011;631;51.024;13.826;2022-07-01T08:26:13;18.87;;;17.07;;
1276;SDS011;631;51.024;13.826;2022-07-01T08:28:40;19.40;;;17.50;;
1276;SDS011;631;51.024;13.826;2022-07-01T08:31:06;21.03;;;18.93;;
1276;SDS011;631;51.024;13.826;2022-07-01T08:33:32;20.50;;;18.60;;
1276;SDS011;631;51.024;13.826;2022-07-01T08:35:57;20.27;;;18.27;;
1276;SDS011;631;51.024;13.826;2022-07-01T08:38:23;20.30;;;18.30;;
1276;SDS011;631;51.024;13.826;2022-07-01T08:40:49;19.07;;;17.27;;
1276;SDS011;631;51.024;13.826;2022-07-01T08:43:14;17.77;;;16.17;;
1276;SDS011;631;51.024;13.826;2022-07-01T08:45:40;18.03;;;16.40;;
1276;SDS011;631;51.024;13.826;2022-07-01T08:48:07;17.07;;;15.50;;
1276;SDS011;631;51.024;13.826;2022-07-01T08:50:36;17.80;;;16.00;;
1276;SDS011;631;51.024;13.826;2022-07-01T08:53:04;18.53;;;16.60;;
1276;SDS011;631;51.024;13.826;2022-07-01T08:55:31;17.30;;;15.80;;
1276;SDS011;631;51.024;13.826;2022-07-01T08:57:57;16.40;;;15.00;;
1276;SDS011;631;51.024;13.826;2022-07-01T09:00:32;17.13;;;15.57;;
1276;SDS011;631;51.024;13.826;2022-07-01T09:02:59;16.60;;;15.00;;
1276;SDS011;631;51.024;13.826;2022-07-01T09:05:27;18.00;;;16.37;;
1276;SDS011;631;51.024;13.826;2022-07-01T09:07:58;17.33;;;15.83;;
1276;SDS011;631;51.024;13.826;2022-07-01T09:10:25;16.27;;;14.77;;
1276;SDS011;631;51.024;13.826;2022-07-01T09:12:52;18.97;;;15.77;;
1276;SDS011;631;51.024;13.826;2022-07-01T09:15:18;18.00;;;16.40;;
1276;SDS011;631;51.024;13.826;2022-07-01T09:17:45;17.70;;;16.00;;
1276;SDS011;631;51.024;13.826;2022-07-01T09:20:30;18.00;;;16.30;;
1276;SDS011;631;51.024;13.826;2022-07-01T09:23:01;18.97;;;17.27;;
1276;SDS011;631;51.024;13.826;2022-07-01T09:25:33;18.87;;;17.03;;
1276;SDS011;631;51.024;13.826;2022-07-01T09:28:02;18.03;;;16.20;;
1276;SDS011;631;51.024;13.826;2022-07-01T09:30:32;19.17;;;17.27;;
1276;SDS011;631;51.024;13.826;2022-07-01T09:33:05;17.40;;;15.70;;
1276;SDS011;631;51.024;13.826;2022-07-01T09:35:35;18.53;;;16.63;;
1276;SDS011;631;51.024;13.826;2022-07-01T09:38:01;17.00;;;15.30;;
1276;SDS011;631;51.024;13.826;2022-07-01T09:45:50;19.07;;;17.30;;
1276;SDS011;631;51.024;13.826;2022-07-01T09:48:22;20.13;;;18.23;;
1276;SDS011;631;51.024;13.826;2022-07-01T09:50:50;20.30;;;18.27;;
1276;SDS011;631;51.024;13.826;2022-07-01T09:53:16;18.50;;;16.63;;
1276;SDS011;631;51.024;13.826;2022-07-01T09:55:42;17.07;;;15.27;;
1276;SDS011;631;51.024;13.826;2022-07-01T09:58:08;19.00;;;16.70;;
1276;SDS011;631;51.024;13.826;2022-07-01T10:00:35;16.90;;;15.10;;
1276;SDS011;631;51.024;13.826;2022-07-01T10:03:03;16.03;;;14.33;;
1276;SDS011;631;51.024;13.826;2022-07-01T10:05:31;16.87;;;15.20;;
1276;SDS011;631;51.024;13.826;2022-07-01T10:14:02;17.43;;;15.63;;
1276;SDS011;631;51.024;13.826;2022-07-01T10:16:29;18.67;;;16.67;;
1276;SDS011;631;51.024;13.826;2022-07-01T10:18:57;17.30;;;15.50;;
1276;SDS011;631;51.024;13.826;2022-07-01T10:21:27;17.10;;;15.60;;
1276;SDS011;631;51.024;13.826;2022-07-01T10:24:09;18.03;;;16.33;;
1276;SDS011;631;51.024;13.826;2022-07-01T10:26:37;18.20;;;16.40;;
1276;SDS011;631;51.024;13.826;2022-07-01T10:29:03;18.07;;;16.13;;
1276;SDS011;631;51.024;13.826;2022-07-01T10:31:37;18.07;;;16.57;;
1276;SDS011;631;51.024;13.826;2022-07-01T10:34:03;17.03;;;15.53;;
1276;SDS011;631;51.024;13.826;2022-07-01T10:36:33;16.90;;;15.30;;
1276;SDS011;631;51.024;13.826;2022-07-01T10:41:26;16.87;;;15.37;;
1276;SDS011;631;51.024;13.826;2022-07-01T10:43:54;15.83;;;14.37;;
1276;SDS011;631;51.024;13.826;2022-07-01T10:49:11;15.20;;;13.80;;
1276;SDS011;631;51.024;13.826;2022-07-01T10:51:46;13.43;;;12.10;;
1276;SDS011;631;51.024;13.826;2022-07-01T10:59:54;14.23;;;13.13;;
1276;SDS011;631;51.024;13.826;2022-07-01T11:02:40;14.97;;;13.70;;
1276;SDS011;631;51.024;13.826;2022-07-01T11:05:10;15.20;;;14.00;;
1276;SDS011;631;51.024;13.826;2022-07-01T11:07:40;15.50;;;14.20;;
1276;SDS011;631;51.024;13.826;2022-07-01T11:10:11;14.93;;;13.73;;
1276;SDS011;631;51.024;13.826;2022-07-01T11:12:39;14.90;;;13.50;;
1276;SDS011;631;51.024;13.826;2022-07-01T11:15:06;14.87;;;13.57;;
1276;SDS011;631;51.024;13.826;2022-07-01T11:17:32;15.20;;;13.87;;
1276;SDS011;631;51.024;13.826;2022-07-01T11:19:59;15.90;;;14.60;;
1276;SDS011;631;51.024;13.826;2022-07-01T11:22:29;15.50;;;14.27;;
1276;SDS011;631;51.024;13.826;2022-07-01T11:25:00;14.63;;;13.43;;
1276;SDS011;631;51.024;13.826;2022-07-01T11:27:28;15.53;;;14.30;;
1276;SDS011;631;51.024;13.826;2022-07-01T11:29:57;15.17;;;13.97;;
1276;SDS011;631;51.024;13.826;2022-07-01T11:34:51;16.23;;;14.63;;
1276;SDS011;631;51.024;13.826;2022-07-01T11:37:17;17.70;;;16.30;;
1276;SDS011;631;51.024;13.826;2022-07-01T11:40:04;17.67;;;16.30;;
1276;SDS011;631;51.024;13.826;2022-07-01T11:42:30;17.00;;;15.57;;
1276;SDS011;631;51.024;13.826;2022-07-01T11:44:55;17.70;;;16.30;;
1276;SDS011;631;51.024;13.826;2022-07-01T11:47:24;17.37;;;15.97;;
1276;SDS011;631;51.024;13.826;2022-07-01T11:49:51;18.37;;;16.87;;
1276;SDS011;631;51.024;13.826;2022-07-01T11:52:18;18.87;;;17.37;;
1276;SDS011;631;51.024;13.826;2022-07-01T11:54:47;18.37;;;16.87;;
1276;SDS011;631;51.024;13.826;2022-07-01T11:57:17;17.50;;;16.10;;
1276;SDS011;631;51.024;13.826;2022-07-01T11:59:47;17.43;;;16.03;;
1276;SDS011;631;51.024;13.826;2022-07-01T12:02:15;17.90;;;16.40;;
1276;SDS011;631;51.024;13.826;2022-07-01T12:04:42;18.33;;;16.60;;
1276;SDS011;631;51.024;13.826;2022-07-01T12:07:09;15.53;;;14.33;;
1276;SDS011;631;51.024;13.826;2022-07-01T12:09:35;15.90;;;14.60;;
1276;SDS011;631;51.024;13.826;2022-07-01T12:12:01;15.33;;;14.03;;
1276;SDS011;631;51.024;13.826;2022-07-01T12:14:32;13.10;;;12.10;;
1276;SDS011;631;51.024;13.826;2022-07-01T12:17:01;13.17;;;12.07;;
1276;SDS011;631;51.024;13.826;2022-07-01T12:22:12;11.70;;;10.70;;
1276;SDS011;631;51.024;13.826;2022-07-01T12:24:43;12.03;;;11.00;;
1276;SDS011;631;51.024;13.826;2022-07-01T12:27:09;12.17;;;11.07;;
1276;SDS011;631;51.024;13.826;2022-07-01T12:32:18;11.97;;;10.77;;
1276;SDS011;631;51.024;13.826;2022-07-01T12:34:49;13.20;;;11.83;;
1276;SDS011;631;51.024;13.826;2022-07-01T12:39:45;12.50;;;11.40;;
1276;SDS011;631;51.024;13.826;2022-07-01T12:44:52;10.77;;;9.83;;
1276;SDS011;631;51.024;13.826;2022-07-01T12:47:20;8.37;;;7.77;;
1276;SDS011;631;51.024;13.826;2022-07-01T12:49:49;8.10;;;7.50;;
1276;SDS011;631;51.024;13.826;2022-07-01T12:52:27;6.90;;;6.33;;
1276;SDS011;631;51.024;13.826;2022-07-01T12:54:54;6.27;;;5.77;;
1276;SDS011;631;51.024;13.826;2022-07-01T12:57:28;5.47;;;5.00;;
1276;SDS011;631;51.024;13.826;2022-07-01T12:59:55;6.30;;;5.03;;
1276;SDS011;631;51.024;13.826;2022-07-01T13:02:21;5.60;;;5.10;;
1276;SDS011;631;51.024;13.826;2022-07-01T13:04:46;5.20;;;4.70;;
1276;SDS011;631;51.024;13.826;2022-07-01T13:07:12;5.60;;;5.10;;
1276;SDS011;631;51.024;13.826;2022-07-01T13:09:38;5.53;;;4.83;;
1276;SDS011;631;51.024;13.826;2022-07-01T13:12:04;5.40;;;5.00;;
1276;SDS011;631;51.024;13.826;2022-07-01T13:14:30;5.63;;;5.17;;
1276;SDS011;631;51.024;13.826;2022-07-01T13:16:55;4.77;;;4.23;;
1276;SDS011;631;51.024;13.826;2022-07-01T13:19:21;4.93;;;4.53;;
1276;SDS011;631;51.024;13.826;2022-07-01T13:21:46;4.90;;;4.50;;
1276;SDS011;631;51.024;13.826;2022-07-01T13:24:12;4.77;;;4.37;;
1276;SDS011;631;51.024;13.826;2022-07-01T13:26:40;4.40;;;4.10;;
1276;SDS011;631;51.024;13.826;2022-07-01T13:29:06;4.40;;;4.10;;
1276;SDS011;631;51.024;13.826;2022-07-01T13:31:32;5.20;;;4.67;;
1276;SDS011;631;51.024;13.826;2022-07-01T13:33:57;4.33;;;4.03;;
1276;SDS011;631;51.024;13.826;2022-07-01T13:36:23;5.33;;;4.93;;
1276;SDS011;631;51.024;13.826;2022-07-01T13:38:48;5.40;;;5.00;;
1276;SDS011;631;51.024;13.826;2022-07-01T13:41:15;5.50;;;5.10;;
1276;SDS011;631;51.024;13.826;2022-07-01T13:43:41;5.87;;;5.47;;
1276;SDS011;631;51.024;13.826;2022-07-01T13:46:06;7.30;;;6.70;;
1276;SDS011;631;51.024;13.826;2022-07-01T13:48:33;8.60;;;7.90;;
1276;SDS011;631;51.024;13.826;2022-07-01T13:50:59;9.20;;;8.40;;
1276;SDS011;631;51.024;13.826;2022-07-01T13:53:24;9.43;;;8.63;;
1276;SDS011;631;51.024;13.826;2022-07-01T13:55:50;11.07;;;10.17;;
1276;SDS011;631;51.024;13.826;2022-07-01T13:58:15;10.53;;;9.63;;
1276;SDS011;631;51.024;13.826;2022-07-01T14:00:42;11.67;;;10.77;;
1276;SDS011;631;51.024;13.826;2022-07-01T14:03:08;11.23;;;10.23;;
1276;SDS011;631;51.024;13.826;2022-07-01T14:05:35;12.60;;;11.50;;
1276;SDS011;631;51.024;13.826;2022-07-01T14:08:01;12.57;;;11.27;;
1276;SDS011;631;51.024;13.826;2022-07-01T14:10:27;12.77;;;11.67;;
1276;SDS011;631;51.024;13.826;2022-07-01T14:12:53;12.73;;;11.67;;
1276;SDS011;631;51.024;13.826;2022-07-01T14:15:18;12.63;;;11.57;;
1276;SDS011;631;51.024;13.826;2022-07-01T14:17:44;13.63;;;12.43;;
1276;SDS011;631;51.024;13.826;2022-07-01T14:20:10;13.67;;;12.27;;
1276;SDS011;631;51.024;13.826;2022-07-01T14:22:36;11.90;;;10.90;;
1276;SDS011;631;51.024;13.826;2022-07-01T14:25:02;12.67;;;11.57;;
1276;SDS011;631;51.024;13.826;2022-07-01T14:27:28;12.50;;;11.47;;
1276;SDS011;631;51.024;13.826;2022-07-01T14:29:54;12.90;;;11.80;;
1276;SDS011;631;51.024;13.826;2022-07-01T14:32:20;13.43;;;12.23;;
1276;SDS011;631;51.024;13.826;2022-07-01T14:34:51;11.77;;;10.70;;
1276;SDS011;631;51.024;13.826;2022-07-01T14:37:17;10.90;;;9.90;;
1276;SDS011;631;51.024;13.826;2022-07-01T14:39:43;11.20;;;10.20;;
1276;SDS011;631;51.024;13.826;2022-07-01T14:42:08;11.00;;;10.00;;
1276;SDS011;631;51.024;13.826;2022-07-01T14:44:34;9.57;;;8.77;;
1276;SDS011;631;51.024;13.826;2022-07-01T14:47:00;10.00;;;9.20;;
1276;SDS011;631;51.024;13.826;2022-07-01T14:49:25;9.20;;;8.40;;
1276;SDS011;631;51.024;13.826;2022-07-01T14:51:51;7.67;;;7.00;;
1276;SDS011;631;51.024;13.826;2022-07-01T14:54:17;7.40;;;6.80;;
1276;SDS011;631;51.024;13.826;2022-07-01T14:56:43;6.73;;;6.23;;
1276;SDS011;631;51.024;13.826;2022-07-01T14:59:08;6.70;;;6.03;;
1276;SDS011;631;51.024;13.826;2022-07-01T15:01:34;6.50;;;6.00;;
1276;SDS011;631;51.024;13.826;2022-07-01T15:04:00;6.47;;;5.93;;
1276;SDS011;631;51.024;13.826;2022-07-01T15:06:25;5.63;;;5.23;;
1276;SDS011;631;51.024;13.826;2022-07-01T15:08:51;4.17;;;3.87;;
1276;SDS011;631;51.024;13.826;2022-07-01T15:11:17;3.67;;;3.37;;
1276;SDS011;631;51.024;13.826;2022-07-01T15:13:42;3.60;;;3.30;;
1276;SDS011;631;51.024;13.826;2022-07-01T15:16:08;4.13;;;3.70;;
1276;SDS011;631;51.024;13.826;2022-07-01T15:18:34;3.63;;;3.33;;
1276;SDS011;631;51.024;13.826;2022-07-01T15:20:59;6.33;;;3.60;;
1276;SDS011;631;51.024;13.826;2022-07-01T15:23:25;3.93;;;3.63;;